sensor_id;sensor_type;location;lat;lon;timestamp;P1;durP1;ratioP1;P2;durP2;ratioP2
70455;SDS011;57916;51.996;5.180;2024-02-26T00:01:04;3.55;;;2.53;;
70455;SDS011;57916;51.996;5.180;2024-02-26T00:03:32;3.13;;;2.83;;
70455;SDS011;57916;51.996;5.180;2024-02-26T00:06:02;2.42;;;2.22;;
70455;SDS011;57916;51.996;5.180;2024-02-26T00:08:29;4.40;;;2.50;;
70455;SDS011;57916;51.996;5.180;2024-02-26T00:10:56;2.38;;;2.15;;
70455;SDS011;57916;51.996;5.180;2024-02-26T00:13:23;2.40;;;2.20;;
70455;SDS011;57916;51.996;5.180;2024-02-26T00:15:50;4.30;;;3.45;;
70455;SDS011;57916;51.996;5.180;2024-02-26T00:18:17;2.20;;;2.00;;
70455;SDS011;57916;51.996;5.180;2024-02-26T00:20:45;3.58;;;3.28;;
70455;SDS011;57916;51.996;5.180;2024-02-26T00:23:14;3.92;;;3.63;;
70455;SDS011;57916;51.996;5.180;2024-02-26T00:25:42;2.92;;;2.72;;
70455;SDS011;57916;51.996;5.180;2024-02-26T00:28:10;4.10;;;2.67;;
70455;SDS011;57916;51.996;5.180;2024-02-26T00:30:37;3.90;;;3.60;;
70455;SDS011;57916;51.996;5.180;2024-02-26T00:33:04;3.97;;;3.20;;
70455;SDS011;57916;51.996;5.180;2024-02-26T00:35:31;2.55;;;2.33;;
70455;SDS011;57916;51.996;5.180;2024-02-26T00:37:58;6.13;;;4.50;;
70455;SDS011;57916;51.996;5.180;2024-02-26T00:40:27;4.80;;;4.22;;
70455;SDS011;57916;51.996;5.180;2024-02-26T00:42:54;4.75;;;4.35;;
70455;SDS011;57916;51.996;5.180;2024-02-26T00:45:21;6.25;;;4.35;;
70455;SDS011;57916;51.996;5.180;2024-02-26T00:47:48;3.42;;;3.13;;
70455;SDS011;57916;51.996;5.180;2024-02-26T00:50:16;4.70;;;4.15;;
70455;SDS011;57916;51.996;5.180;2024-02-26T00:52:43;2.83;;;2.55;;
70455;SDS011;57916;51.996;5.180;2024-02-26T00:55:11;3.92;;;3.45;;
70455;SDS011;57916;51.996;5.180;2024-02-26T00:57:38;4.65;;;3.90;;
70455;SDS011;57916;51.996;5.180;2024-02-26T01:00:07;5.10;;;3.33;;
70455;SDS011;57916;51.996;5.180;2024-02-26T01:02:37;5.35;;;3.83;;
70455;SDS011;57916;51.996;5.180;2024-02-26T01:05:05;3.83;;;3.53;;
70455;SDS011;57916;51.996;5.180;2024-02-26T01:07:33;2.25;;;2.08;;
70455;SDS011;57916;51.996;5.180;2024-02-26T01:10:03;4.75;;;3.63;;
70455;SDS011;57916;51.996;5.180;2024-02-26T01:12:30;5.57;;;3.67;;
70455;SDS011;57916;51.996;5.180;2024-02-26T01:14:58;4.45;;;3.67;;
70455;SDS011;57916;51.996;5.180;2024-02-26T01:17:26;4.13;;;3.83;;
70455;SDS011;57916;51.996;5.180;2024-02-26T01:19:53;5.50;;;3.75;;
70455;SDS011;57916;51.996;5.180;2024-02-26T01:22:20;5.32;;;3.88;;
70455;SDS011;57916;51.996;5.180;2024-02-26T01:24:47;4.30;;;3.90;;
70455;SDS011;57916;51.996;5.180;2024-02-26T01:27:14;4.82;;;3.95;;
70455;SDS011;57916;51.996;5.180;2024-02-26T01:29:44;4.88;;;4.10;;
70455;SDS011;57916;51.996;5.180;2024-02-26T01:32:12;3.67;;;3.40;;
70455;SDS011;57916;51.996;5.180;2024-02-26T01:34:39;3.75;;;3.28;;
70455;SDS011;57916;51.996;5.180;2024-02-26T01:37:06;4.57;;;4.10;;
70455;SDS011;57916;51.996;5.180;2024-02-26T01:39:33;4.15;;;3.85;;
70455;SDS011;57916;51.996;5.180;2024-02-26T01:42:01;2.63;;;2.47;;
70455;SDS011;57916;51.996;5.180;2024-02-26T01:44:28;6.27;;;4.40;;
70455;SDS011;57916;51.996;5.180;2024-02-26T01:46:55;4.38;;;3.85;;
70455;SDS011;57916;51.996;5.180;2024-02-26T01:49:22;3.50;;;2.90;;
70455;SDS011;57916;51.996;5.180;2024-02-26T01:51:49;4.45;;;4.07;;
70455;SDS011;57916;51.996;5.180;2024-02-26T01:54:16;3.55;;;3.22;;
70455;SDS011;57916;51.996;5.180;2024-02-26T01:56:44;3.60;;;3.30;;
70455;SDS011;57916;51.996;5.180;2024-02-26T01:59:11;3.90;;;3.60;;
70455;SDS011;57916;51.996;5.180;2024-02-26T02:01:38;3.75;;;3.42;;
70455;SDS011;57916;51.996;5.180;2024-02-26T02:04:08;3.90;;;3.35;;
70455;SDS011;57916;51.996;5.180;2024-02-26T02:06:36;3.22;;;3.00;;
70455;SDS011;57916;51.996;5.180;2024-02-26T02:09:05;3.30;;;3.10;;
70455;SDS011;57916;51.996;5.180;2024-02-26T02:11:34;3.28;;;3.00;;
70455;SDS011;57916;51.996;5.180;2024-02-26T02:14:01;2.70;;;2.50;;
70455;SDS011;57916;51.996;5.180;2024-02-26T02:16:28;3.45;;;1.50;;
70455;SDS011;57916;51.996;5.180;2024-02-26T02:18:55;2.73;;;2.50;;
70455;SDS011;57916;51.996;5.180;2024-02-26T02:21:23;5.60;;;4.22;;
70455;SDS011;57916;51.996;5.180;2024-02-26T02:23:50;4.00;;;3.20;;
70455;SDS011;57916;51.996;5.180;2024-02-26T02:26:17;3.65;;;3.42;;
70455;SDS011;57916;51.996;5.180;2024-02-26T02:28:46;3.30;;;2.57;;
70455;SDS011;57916;51.996;5.180;2024-02-26T02:31:14;3.60;;;2.78;;
70455;SDS011;57916;51.996;5.180;2024-02-26T02:33:42;4.03;;;3.63;;
70455;SDS011;57916;51.996;5.180;2024-02-26T02:36:10;3.58;;;3.38;;
70455;SDS011;57916;51.996;5.180;2024-02-26T02:38:37;4.05;;;3.75;;
70455;SDS011;57916;51.996;5.180;2024-02-26T02:41:15;2.90;;;2.17;;
70455;SDS011;57916;51.996;5.180;2024-02-26T02:43:42;3.10;;;2.70;;
70455;SDS011;57916;51.996;5.180;2024-02-26T02:46:09;2.38;;;2.17;;
70455;SDS011;57916;51.996;5.180;2024-02-26T02:48:39;3.35;;;3.05;;
70455;SDS011;57916;51.996;5.180;2024-02-26T02:51:08;2.47;;;2.27;;
70455;SDS011;57916;51.996;5.180;2024-02-26T02:53:35;2.88;;;2.63;;
70455;SDS011;57916;51.996;5.180;2024-02-26T02:56:03;4.88;;;3.55;;
70455;SDS011;57916;51.996;5.180;2024-02-26T02:58:30;5.80;;;5.30;;
70455;SDS011;57916;51.996;5.180;2024-02-26T03:00:57;4.43;;;3.17;;
70455;SDS011;57916;51.996;5.180;2024-02-26T03:03:26;3.53;;;3.20;;
70455;SDS011;57916;51.996;5.180;2024-02-26T03:05:55;3.72;;;2.58;;
70455;SDS011;57916;51.996;5.180;2024-02-26T03:08:22;4.13;;;3.67;;
70455;SDS011;57916;51.996;5.180;2024-02-26T03:10:52;4.30;;;3.90;;
70455;SDS011;57916;51.996;5.180;2024-02-26T03:13:19;4.30;;;3.90;;
70455;SDS011;57916;51.996;5.180;2024-02-26T03:15:46;4.07;;;3.67;;
70455;SDS011;57916;51.996;5.180;2024-02-26T03:18:13;4.47;;;4.07;;
70455;SDS011;57916;51.996;5.180;2024-02-26T03:20:41;2.30;;;2.20;;
70455;SDS011;57916;51.996;5.180;2024-02-26T03:23:08;5.55;;;3.25;;
70455;SDS011;57916;51.996;5.180;2024-02-26T03:25:38;5.15;;;4.68;;
70455;SDS011;57916;51.996;5.180;2024-02-26T03:28:05;1.98;;;1.85;;
70455;SDS011;57916;51.996;5.180;2024-02-26T03:30:32;6.28;;;5.45;;
70455;SDS011;57916;51.996;5.180;2024-02-26T03:32:59;4.57;;;4.07;;
70455;SDS011;57916;51.996;5.180;2024-02-26T03:35:27;3.05;;;2.85;;
70455;SDS011;57916;51.996;5.180;2024-02-26T03:37:54;5.53;;;4.63;;
70455;SDS011;57916;51.996;5.180;2024-02-26T03:40:21;6.22;;;4.50;;
70455;SDS011;57916;51.996;5.180;2024-02-26T03:42:48;4.85;;;3.75;;
70455;SDS011;57916;51.996;5.180;2024-02-26T03:45:15;4.28;;;3.45;;
70455;SDS011;57916;51.996;5.180;2024-02-26T03:47:42;5.15;;;4.35;;
70455;SDS011;57916;51.996;5.180;2024-02-26T03:50:09;5.32;;;3.80;;
70455;SDS011;57916;51.996;5.180;2024-02-26T03:52:37;4.95;;;4.55;;
70455;SDS011;57916;51.996;5.180;2024-02-26T03:55:04;7.07;;;5.30;;
70455;SDS011;57916;51.996;5.180;2024-02-26T03:57:31;6.78;;;4.95;;
70455;SDS011;57916;51.996;5.180;2024-02-26T03:59:58;4.95;;;3.90;;
70455;SDS011;57916;51.996;5.180;2024-02-26T04:02:25;6.77;;;5.67;;
70455;SDS011;57916;51.996;5.180;2024-02-26T04:04:53;6.40;;;5.50;;
70455;SDS011;57916;51.996;5.180;2024-02-26T04:07:20;5.55;;;4.72;;
70455;SDS011;57916;51.996;5.180;2024-02-26T04:09:48;7.30;;;4.50;;
70455;SDS011;57916;51.996;5.180;2024-02-26T04:12:15;7.10;;;5.53;;
70455;SDS011;57916;51.996;5.180;2024-02-26T04:14:42;5.90;;;5.18;;
70455;SDS011;57916;51.996;5.180;2024-02-26T04:17:09;7.43;;;5.10;;
70455;SDS011;57916;51.996;5.180;2024-02-26T04:19:37;4.68;;;3.92;;
70455;SDS011;57916;51.996;5.180;2024-02-26T04:22:04;6.43;;;4.77;;
70455;SDS011;57916;51.996;5.180;2024-02-26T04:24:31;5.70;;;4.85;;
70455;SDS011;57916;51.996;5.180;2024-02-26T04:26:58;9.10;;;5.10;;
70455;SDS011;57916;51.996;5.180;2024-02-26T04:29:25;9.02;;;5.78;;
70455;SDS011;57916;51.996;5.180;2024-02-26T04:31:53;4.90;;;4.40;;
70455;SDS011;57916;51.996;5.180;2024-02-26T04:34:20;4.32;;;3.92;;
70455;SDS011;57916;51.996;5.180;2024-02-26T04:36:47;4.57;;;3.58;;
70455;SDS011;57916;51.996;5.180;2024-02-26T04:39:14;7.28;;;5.63;;
70455;SDS011;57916;51.996;5.180;2024-02-26T04:41:41;8.43;;;6.03;;
70455;SDS011;57916;51.996;5.180;2024-02-26T04:44:08;6.47;;;5.20;;
70455;SDS011;57916;51.996;5.180;2024-02-26T04:46:36;8.43;;;6.00;;
70455;SDS011;57916;51.996;5.180;2024-02-26T04:49:03;7.53;;;6.38;;
70455;SDS011;57916;51.996;5.180;2024-02-26T04:51:30;8.15;;;5.45;;
70455;SDS011;57916;51.996;5.180;2024-02-26T04:53:57;4.30;;;3.80;;
70455;SDS011;57916;51.996;5.180;2024-02-26T04:56:24;5.05;;;4.15;;
70455;SDS011;57916;51.996;5.180;2024-02-26T04:58:52;9.70;;;6.72;;
70455;SDS011;57916;51.996;5.180;2024-02-26T05:01:19;11.35;;;6.65;;
70455;SDS011;57916;51.996;5.180;2024-02-26T05:03:46;7.75;;;6.35;;
70455;SDS011;57916;51.996;5.180;2024-02-26T05:06:13;5.65;;;4.53;;
70455;SDS011;57916;51.996;5.180;2024-02-26T05:08:40;7.65;;;5.90;;
70455;SDS011;57916;51.996;5.180;2024-02-26T05:11:07;7.30;;;6.32;;
70455;SDS011;57916;51.996;5.180;2024-02-26T05:13:35;6.68;;;5.80;;
70455;SDS011;57916;51.996;5.180;2024-02-26T05:16:02;7.28;;;5.78;;
70455;SDS011;57916;51.996;5.180;2024-02-26T05:18:29;6.25;;;4.75;;
70455;SDS011;57916;51.996;5.180;2024-02-26T05:20:56;7.50;;;5.82;;
70455;SDS011;57916;51.996;5.180;2024-02-26T05:23:23;7.63;;;5.53;;
70455;SDS011;57916;51.996;5.180;2024-02-26T05:25:50;7.15;;;5.70;;
70455;SDS011;57916;51.996;5.180;2024-02-26T05:28:17;4.22;;;3.60;;
70455;SDS011;57916;51.996;5.180;2024-02-26T05:30:47;7.10;;;5.45;;
70455;SDS011;57916;51.996;5.180;2024-02-26T05:33:14;5.75;;;5.25;;
70455;SDS011;57916;51.996;5.180;2024-02-26T05:35:44;6.28;;;5.07;;
70455;SDS011;57916;51.996;5.180;2024-02-26T05:38:11;7.90;;;5.82;;
70455;SDS011;57916;51.996;5.180;2024-02-26T05:40:38;6.50;;;5.50;;
70455;SDS011;57916;51.996;5.180;2024-02-26T05:43:05;5.75;;;5.13;;
70455;SDS011;57916;51.996;5.180;2024-02-26T05:45:32;6.80;;;4.82;;
70455;SDS011;57916;51.996;5.180;2024-02-26T05:48:00;9.77;;;5.78;;
70455;SDS011;57916;51.996;5.180;2024-02-26T05:50:27;8.18;;;4.90;;
70455;SDS011;57916;51.996;5.180;2024-02-26T05:52:54;3.95;;;3.60;;
70455;SDS011;57916;51.996;5.180;2024-02-26T05:55:21;5.07;;;4.57;;
70455;SDS011;57916;51.996;5.180;2024-02-26T05:57:48;7.50;;;5.10;;
70455;SDS011;57916;51.996;5.180;2024-02-26T06:00:16;5.45;;;4.50;;
70455;SDS011;57916;51.996;5.180;2024-02-26T06:02:43;6.28;;;5.05;;
70455;SDS011;57916;51.996;5.180;2024-02-26T06:05:10;6.05;;;3.92;;
70455;SDS011;57916;51.996;5.180;2024-02-26T06:07:37;7.15;;;5.50;;
70455;SDS011;57916;51.996;5.180;2024-02-26T06:10:04;4.93;;;4.53;;
70455;SDS011;57916;51.996;5.180;2024-02-26T06:12:34;4.18;;;3.70;;
70455;SDS011;57916;51.996;5.180;2024-02-26T06:15:02;6.28;;;4.97;;
70455;SDS011;57916;51.996;5.180;2024-02-26T06:17:31;4.22;;;3.75;;
70455;SDS011;57916;51.996;5.180;2024-02-26T06:19:58;7.80;;;5.25;;
70455;SDS011;57916;51.996;5.180;2024-02-26T06:22:26;5.32;;;4.80;;
70455;SDS011;57916;51.996;5.180;2024-02-26T06:24:53;5.97;;;5.13;;
70455;SDS011;57916;51.996;5.180;2024-02-26T06:27:21;6.03;;;5.00;;
70455;SDS011;57916;51.996;5.180;2024-02-26T06:29:48;7.68;;;5.75;;
70455;SDS011;57916;51.996;5.180;2024-02-26T06:32:15;7.78;;;4.97;;
70455;SDS011;57916;51.996;5.180;2024-02-26T06:34:42;7.88;;;5.40;;
70455;SDS011;57916;51.996;5.180;2024-02-26T06:37:10;6.93;;;5.78;;
70455;SDS011;57916;51.996;5.180;2024-02-26T06:39:37;7.68;;;5.65;;
70455;SDS011;57916;51.996;5.180;2024-02-26T06:42:05;8.65;;;6.30;;
70455;SDS011;57916;51.996;5.180;2024-02-26T06:44:32;11.30;;;7.03;;
70455;SDS011;57916;51.996;5.180;2024-02-26T06:47:00;10.00;;;6.95;;
70455;SDS011;57916;51.996;5.180;2024-02-26T06:49:27;8.90;;;6.00;;
70455;SDS011;57916;51.996;5.180;2024-02-26T06:51:55;9.95;;;6.93;;
70455;SDS011;57916;51.996;5.180;2024-02-26T06:54:22;9.93;;;7.35;;
70455;SDS011;57916;51.996;5.180;2024-02-26T06:56:49;6.88;;;5.55;;
70455;SDS011;57916;51.996;5.180;2024-02-26T06:59:17;9.25;;;6.43;;
70455;SDS011;57916;51.996;5.180;2024-02-26T07:01:45;10.10;;;7.38;;
70455;SDS011;57916;51.996;5.180;2024-02-26T07:04:12;11.05;;;7.25;;
70455;SDS011;57916;51.996;5.180;2024-02-26T07:06:39;11.93;;;7.75;;
70455;SDS011;57916;51.996;5.180;2024-02-26T07:09:06;7.00;;;5.20;;
70455;SDS011;57916;51.996;5.180;2024-02-26T07:11:33;10.23;;;5.97;;
70455;SDS011;57916;51.996;5.180;2024-02-26T07:14:00;12.88;;;8.23;;
70455;SDS011;57916;51.996;5.180;2024-02-26T07:16:27;12.32;;;8.00;;
70455;SDS011;57916;51.996;5.180;2024-02-26T07:18:54;8.93;;;5.95;;
70455;SDS011;57916;51.996;5.180;2024-02-26T07:21:22;11.95;;;7.45;;
70455;SDS011;57916;51.996;5.180;2024-02-26T07:23:50;10.57;;;6.97;;
70455;SDS011;57916;51.996;5.180;2024-02-26T07:26:17;12.82;;;8.40;;
70455;SDS011;57916;51.996;5.180;2024-02-26T07:28:46;15.02;;;8.52;;
70455;SDS011;57916;51.996;5.180;2024-02-26T07:31:13;13.25;;;8.18;;
70455;SDS011;57916;51.996;5.180;2024-02-26T07:33:40;10.45;;;6.82;;
70455;SDS011;57916;51.996;5.180;2024-02-26T07:36:07;18.05;;;8.63;;
70455;SDS011;57916;51.996;5.180;2024-02-26T07:38:34;16.48;;;9.68;;
70455;SDS011;57916;51.996;5.180;2024-02-26T07:41:09;13.87;;;8.30;;
70455;SDS011;57916;51.996;5.180;2024-02-26T07:43:36;15.98;;;8.80;;
70455;SDS011;57916;51.996;5.180;2024-02-26T07:46:04;11.70;;;7.38;;
70455;SDS011;57916;51.996;5.180;2024-02-26T07:48:31;20.13;;;10.53;;
70455;SDS011;57916;51.996;5.180;2024-02-26T07:50:58;14.93;;;8.68;;
70455;SDS011;57916;51.996;5.180;2024-02-26T07:53:26;14.18;;;8.00;;
70455;SDS011;57916;51.996;5.180;2024-02-26T07:55:54;11.00;;;6.85;;
70455;SDS011;57916;51.996;5.180;2024-02-26T07:58:21;20.80;;;11.35;;
70455;SDS011;57916;51.996;5.180;2024-02-26T08:00:50;15.05;;;9.05;;
70455;SDS011;57916;51.996;5.180;2024-02-26T08:03:17;17.92;;;7.68;;
70455;SDS011;57916;51.996;5.180;2024-02-26T08:05:44;14.25;;;7.53;;
70455;SDS011;57916;51.996;5.180;2024-02-26T08:08:11;20.75;;;11.63;;
70455;SDS011;57916;51.996;5.180;2024-02-26T08:10:38;22.10;;;11.10;;
70455;SDS011;57916;51.996;5.180;2024-02-26T08:13:06;20.25;;;11.27;;
70455;SDS011;57916;51.996;5.180;2024-02-26T08:15:33;21.20;;;11.63;;
70455;SDS011;57916;51.996;5.180;2024-02-26T08:18:01;19.15;;;10.10;;
70455;SDS011;57916;51.996;5.180;2024-02-26T08:20:30;27.00;;;13.13;;
70455;SDS011;57916;51.996;5.180;2024-02-26T08:22:57;22.98;;;12.32;;
70455;SDS011;57916;51.996;5.180;2024-02-26T08:25:24;21.85;;;11.90;;
70455;SDS011;57916;51.996;5.180;2024-02-26T08:27:52;23.50;;;12.77;;
70455;SDS011;57916;51.996;5.180;2024-02-26T08:30:19;17.00;;;8.95;;
70455;SDS011;57916;51.996;5.180;2024-02-26T08:32:47;26.23;;;13.85;;
70455;SDS011;57916;51.996;5.180;2024-02-26T08:35:18;18.98;;;10.05;;
70455;SDS011;57916;51.996;5.180;2024-02-26T08:37:46;22.00;;;11.93;;
70455;SDS011;57916;51.996;5.180;2024-02-26T08:40:14;21.17;;;12.50;;
70455;SDS011;57916;51.996;5.180;2024-02-26T08:42:42;27.50;;;13.00;;
70455;SDS011;57916;51.996;5.180;2024-02-26T08:45:09;26.65;;;14.77;;
70455;SDS011;57916;51.996;5.180;2024-02-26T08:47:36;17.23;;;9.70;;
70455;SDS011;57916;51.996;5.180;2024-02-26T08:50:04;14.52;;;9.02;;
70455;SDS011;57916;51.996;5.180;2024-02-26T08:52:32;18.92;;;10.73;;
70455;SDS011;57916;51.996;5.180;2024-02-26T08:54:59;17.75;;;11.60;;
70455;SDS011;57916;51.996;5.180;2024-02-26T08:57:26;17.55;;;10.40;;
70455;SDS011;57916;51.996;5.180;2024-02-26T08:59:54;11.75;;;8.32;;
70455;SDS011;57916;51.996;5.180;2024-02-26T09:02:21;18.02;;;11.68;;
70455;SDS011;57916;51.996;5.180;2024-02-26T09:04:48;14.38;;;9.73;;
70455;SDS011;57916;51.996;5.180;2024-02-26T09:07:17;13.87;;;9.30;;
70455;SDS011;57916;51.996;5.180;2024-02-26T09:09:45;14.60;;;9.68;;
70455;SDS011;57916;51.996;5.180;2024-02-26T09:12:12;14.35;;;9.05;;
70455;SDS011;57916;51.996;5.180;2024-02-26T09:14:39;9.90;;;6.68;;
70455;SDS011;57916;51.996;5.180;2024-02-26T09:17:06;11.10;;;7.65;;
70455;SDS011;57916;51.996;5.180;2024-02-26T09:19:34;13.18;;;8.80;;
70455;SDS011;57916;51.996;5.180;2024-02-26T09:22:01;11.32;;;7.65;;
70455;SDS011;57916;51.996;5.180;2024-02-26T09:24:28;13.10;;;8.80;;
70455;SDS011;57916;51.996;5.180;2024-02-26T09:26:55;10.20;;;7.03;;
70455;SDS011;57916;51.996;5.180;2024-02-26T09:29:22;9.10;;;6.47;;
70455;SDS011;57916;51.996;5.180;2024-02-26T09:31:51;12.32;;;8.90;;
70455;SDS011;57916;51.996;5.180;2024-02-26T09:34:18;15.63;;;9.25;;
70455;SDS011;57916;51.996;5.180;2024-02-26T09:36:45;12.38;;;8.25;;
70455;SDS011;57916;51.996;5.180;2024-02-26T09:39:13;11.82;;;7.15;;
70455;SDS011;57916;51.996;5.180;2024-02-26T09:41:43;10.18;;;6.90;;
70455;SDS011;57916;51.996;5.180;2024-02-26T09:44:11;13.03;;;8.40;;
70455;SDS011;57916;51.996;5.180;2024-02-26T09:46:41;9.15;;;6.80;;
70455;SDS011;57916;51.996;5.180;2024-02-26T09:49:09;7.82;;;5.63;;
70455;SDS011;57916;51.996;5.180;2024-02-26T09:51:38;7.68;;;5.13;;
70455;SDS011;57916;51.996;5.180;2024-02-26T09:54:05;11.02;;;6.90;;
70455;SDS011;57916;51.996;5.180;2024-02-26T09:56:39;9.93;;;6.70;;
70455;SDS011;57916;51.996;5.180;2024-02-26T09:59:21;11.32;;;7.80;;
70455;SDS011;57916;51.996;5.180;2024-02-26T10:01:49;9.80;;;6.20;;
70455;SDS011;57916;51.996;5.180;2024-02-26T10:04:17;8.93;;;6.38;;
70455;SDS011;57916;51.996;5.180;2024-02-26T10:06:45;6.88;;;5.13;;
70455;SDS011;57916;51.996;5.180;2024-02-26T10:09:13;8.55;;;6.10;;
70455;SDS011;57916;51.996;5.180;2024-02-26T10:11:42;6.40;;;4.82;;
70455;SDS011;57916;51.996;5.180;2024-02-26T10:14:10;9.02;;;6.63;;
70455;SDS011;57916;51.996;5.180;2024-02-26T10:16:38;9.02;;;5.70;;
70455;SDS011;57916;51.996;5.180;2024-02-26T10:19:05;7.32;;;5.43;;
70455;SDS011;57916;51.996;5.180;2024-02-26T10:21:33;7.68;;;5.43;;
70455;SDS011;57916;51.996;5.180;2024-02-26T10:24:00;5.53;;;4.03;;
70455;SDS011;57916;51.996;5.180;2024-02-26T10:26:27;7.00;;;5.13;;
70455;SDS011;57916;51.996;5.180;2024-02-26T10:28:54;10.25;;;5.93;;
70455;SDS011;57916;51.996;5.180;2024-02-26T10:31:27;5.65;;;4.43;;
70455;SDS011;57916;51.996;5.180;2024-02-26T10:33:55;9.45;;;6.63;;
70455;SDS011;57916;51.996;5.180;2024-02-26T10:36:27;9.65;;;5.85;;
70455;SDS011;57916;51.996;5.180;2024-02-26T10:39:13;10.07;;;6.18;;
70455;SDS011;57916;51.996;5.180;2024-02-26T10:41:43;8.50;;;6.32;;
70455;SDS011;57916;51.996;5.180;2024-02-26T10:44:11;7.65;;;5.32;;
70455;SDS011;57916;51.996;5.180;2024-02-26T10:46:44;8.90;;;5.90;;
70455;SDS011;57916;51.996;5.180;2024-02-26T10:49:16;9.25;;;6.60;;
70455;SDS011;57916;51.996;5.180;2024-02-26T10:51:51;4.05;;;3.40;;
70455;SDS011;57916;51.996;5.180;2024-02-26T10:54:22;5.57;;;4.85;;
70455;SDS011;57916;51.996;5.180;2024-02-26T10:56:53;4.20;;;3.40;;
70455;SDS011;57916;51.996;5.180;2024-02-26T10:59:23;7.40;;;5.88;;
70455;SDS011;57916;51.996;5.180;2024-02-26T11:01:50;4.30;;;3.90;;
70455;SDS011;57916;51.996;5.180;2024-02-26T11:04:18;8.85;;;5.60;;
70455;SDS011;57916;51.996;5.180;2024-02-26T11:06:46;8.87;;;6.20;;
70455;SDS011;57916;51.996;5.180;2024-02-26T11:09:16;7.63;;;5.55;;
70455;SDS011;57916;51.996;5.180;2024-02-26T11:11:46;6.88;;;4.60;;
70455;SDS011;57916;51.996;5.180;2024-02-26T11:14:14;7.95;;;5.50;;
70455;SDS011;57916;51.996;5.180;2024-02-26T11:16:43;6.40;;;4.82;;
70455;SDS011;57916;51.996;5.180;2024-02-26T11:19:11;7.50;;;4.90;;
70455;SDS011;57916;51.996;5.180;2024-02-26T11:21:40;6.20;;;4.82;;
70455;SDS011;57916;51.996;5.180;2024-02-26T11:24:10;5.30;;;3.97;;
70455;SDS011;57916;51.996;5.180;2024-02-26T11:26:41;6.47;;;4.57;;
70455;SDS011;57916;51.996;5.180;2024-02-26T11:29:13;9.20;;;6.05;;
70455;SDS011;57916;51.996;5.180;2024-02-26T11:31:42;6.15;;;5.22;;
70455;SDS011;57916;51.996;5.180;2024-02-26T11:34:09;6.43;;;5.63;;
70455;SDS011;57916;51.996;5.180;2024-02-26T11:36:38;5.38;;;4.60;;
70455;SDS011;57916;51.996;5.180;2024-02-26T11:39:06;4.03;;;3.33;;
70455;SDS011;57916;51.996;5.180;2024-02-26T11:41:33;4.85;;;3.45;;
70455;SDS011;57916;51.996;5.180;2024-02-26T11:44:01;5.95;;;4.82;;
70455;SDS011;57916;51.996;5.180;2024-02-26T11:46:33;7.28;;;5.93;;
70455;SDS011;57916;51.996;5.180;2024-02-26T11:51:57;8.40;;;5.38;;
70455;SDS011;57916;51.996;5.180;2024-02-26T11:57:22;8.27;;;5.50;;
70455;SDS011;57916;51.996;5.180;2024-02-26T11:59:49;6.90;;;5.88;;
70455;SDS011;57916;51.996;5.180;2024-02-26T12:07:43;6.15;;;4.43;;
70455;SDS011;57916;51.996;5.180;2024-02-26T12:12:42;5.53;;;4.65;;
70455;SDS011;57916;51.996;5.180;2024-02-26T12:15:09;5.63;;;4.63;;
70455;SDS011;57916;51.996;5.180;2024-02-26T12:17:37;7.65;;;4.88;;
70455;SDS011;57916;51.996;5.180;2024-02-26T12:20:08;3.83;;;3.53;;
70455;SDS011;57916;51.996;5.180;2024-02-26T12:22:38;9.07;;;6.33;;
70455;SDS011;57916;51.996;5.180;2024-02-26T12:25:10;7.37;;;6.27;;
70455;SDS011;57916;51.996;5.180;2024-02-26T12:27:37;5.43;;;4.93;;
70455;SDS011;57916;51.996;5.180;2024-02-26T12:30:04;6.82;;;5.40;;
70455;SDS011;57916;51.996;5.180;2024-02-26T12:32:33;4.80;;;4.15;;
70455;SDS011;57916;51.996;5.180;2024-02-26T12:35:01;4.43;;;3.95;;
70455;SDS011;57916;51.996;5.180;2024-02-26T12:37:28;7.35;;;5.93;;
70455;SDS011;57916;51.996;5.180;2024-02-26T12:39:55;9.05;;;5.75;;
70455;SDS011;57916;51.996;5.180;2024-02-26T12:42:22;6.13;;;5.33;;
70455;SDS011;57916;51.996;5.180;2024-02-26T12:44:50;5.18;;;4.43;;
70455;SDS011;57916;51.996;5.180;2024-02-26T12:47:18;8.02;;;5.13;;
70455;SDS011;57916;51.996;5.180;2024-02-26T12:49:48;6.10;;;5.40;;
70455;SDS011;57916;51.996;5.180;2024-02-26T12:52:16;3.80;;;3.47;;
70455;SDS011;57916;51.996;5.180;2024-02-26T12:54:44;6.13;;;5.50;;
70455;SDS011;57916;51.996;5.180;2024-02-26T12:57:11;5.50;;;4.43;;
70455;SDS011;57916;51.996;5.180;2024-02-26T12:59:38;7.03;;;5.85;;
70455;SDS011;57916;51.996;5.180;2024-02-26T13:02:06;5.13;;;4.63;;
70455;SDS011;57916;51.996;5.180;2024-02-26T13:04:35;7.22;;;4.07;;
70455;SDS011;57916;51.996;5.180;2024-02-26T13:07:03;5.20;;;4.70;;
70455;SDS011;57916;51.996;5.180;2024-02-26T13:09:32;6.18;;;3.47;;
70455;SDS011;57916;51.996;5.180;2024-02-26T13:12:05;6.43;;;5.47;;
70455;SDS011;57916;51.996;5.180;2024-02-26T13:14:33;8.05;;;5.10;;
70455;SDS011;57916;51.996;5.180;2024-02-26T13:17:01;4.90;;;3.58;;
70455;SDS011;57916;51.996;5.180;2024-02-26T13:19:28;5.93;;;4.93;;
70455;SDS011;57916;51.996;5.180;2024-02-26T13:21:56;4.50;;;3.55;;
70455;SDS011;57916;51.996;5.180;2024-02-26T13:24:30;5.40;;;4.72;;
70455;SDS011;57916;51.996;5.180;2024-02-26T13:26:58;4.90;;;4.40;;
70455;SDS011;57916;51.996;5.180;2024-02-26T13:29:25;5.40;;;4.85;;
70455;SDS011;57916;51.996;5.180;2024-02-26T13:31:55;6.30;;;5.07;;
70455;SDS011;57916;51.996;5.180;2024-02-26T13:36:52;7.53;;;5.60;;
70455;SDS011;57916;51.996;5.180;2024-02-26T13:39:21;7.15;;;5.68;;
70455;SDS011;57916;51.996;5.180;2024-02-26T13:41:50;7.50;;;5.47;;
70455;SDS011;57916;51.996;5.180;2024-02-26T13:44:21;6.78;;;5.30;;
70455;SDS011;57916;51.996;5.180;2024-02-26T13:46:48;4.00;;;3.60;;
70455;SDS011;57916;51.996;5.180;2024-02-26T13:49:18;4.40;;;4.00;;
70455;SDS011;57916;51.996;5.180;2024-02-26T13:51:46;5.10;;;4.60;;
70455;SDS011;57916;51.996;5.180;2024-02-26T13:54:13;6.13;;;4.85;;
70455;SDS011;57916;51.996;5.180;2024-02-26T13:56:41;3.97;;;3.58;;
70455;SDS011;57916;51.996;5.180;2024-02-26T13:59:12;7.68;;;4.63;;
70455;SDS011;57916;51.996;5.180;2024-02-26T14:01:39;5.00;;;4.60;;
70455;SDS011;57916;51.996;5.180;2024-02-26T14:04:06;4.63;;;4.18;;
70455;SDS011;57916;51.996;5.180;2024-02-26T14:06:36;4.93;;;4.43;;
70455;SDS011;57916;51.996;5.180;2024-02-26T14:09:03;4.57;;;4.00;;
70455;SDS011;57916;51.996;5.180;2024-02-26T14:11:31;4.45;;;4.05;;
70455;SDS011;57916;51.996;5.180;2024-02-26T14:13:58;5.40;;;4.15;;
70455;SDS011;57916;51.996;5.180;2024-02-26T14:16:25;5.10;;;4.50;;
70455;SDS011;57916;51.996;5.180;2024-02-26T14:18:56;4.70;;;4.22;;
70455;SDS011;57916;51.996;5.180;2024-02-26T14:21:23;5.32;;;4.82;;
70455;SDS011;57916;51.996;5.180;2024-02-26T14:23:50;4.70;;;3.80;;
70455;SDS011;57916;51.996;5.180;2024-02-26T14:26:17;4.80;;;4.40;;
70455;SDS011;57916;51.996;5.180;2024-02-26T14:28:44;3.50;;;3.13;;
70455;SDS011;57916;51.996;5.180;2024-02-26T14:31:11;4.35;;;3.90;;
70455;SDS011;57916;51.996;5.180;2024-02-26T14:33:39;5.45;;;3.85;;
70455;SDS011;57916;51.996;5.180;2024-02-26T14:36:07;4.22;;;3.30;;
70455;SDS011;57916;51.996;5.180;2024-02-26T14:38:34;3.35;;;3.05;;
70455;SDS011;57916;51.996;5.180;2024-02-26T14:41:02;3.85;;;3.47;;
70455;SDS011;57916;51.996;5.180;2024-02-26T14:43:29;3.78;;;3.47;;
70455;SDS011;57916;51.996;5.180;2024-02-26T14:45:58;2.90;;;2.70;;
70455;SDS011;57916;51.996;5.180;2024-02-26T14:48:25;4.38;;;3.97;;
70455;SDS011;57916;51.996;5.180;2024-02-26T14:50:53;4.28;;;3.60;;
70455;SDS011;57916;51.996;5.180;2024-02-26T14:53:20;4.10;;;3.80;;
70455;SDS011;57916;51.996;5.180;2024-02-26T14:55:47;4.05;;;3.65;;
70455;SDS011;57916;51.996;5.180;2024-02-26T14:58:15;4.13;;;3.67;;
70455;SDS011;57916;51.996;5.180;2024-02-26T15:00:43;4.20;;;3.80;;
70455;SDS011;57916;51.996;5.180;2024-02-26T15:03:10;3.47;;;3.17;;
70455;SDS011;57916;51.996;5.180;2024-02-26T15:05:37;3.30;;;3.00;;